createdAt,value
2023-02-18T00:00:21.037Z,9.45
2023-02-18T00:02:52.273Z,8.85
2023-02-18T00:05:21.815Z,8.27
2023-02-18T00:07:50.853Z,9.75
2023-02-18T00:10:19.841Z,9.20
2023-02-18T00:12:48.386Z,5.03
2023-02-18T00:15:19.533Z,7.93
2023-02-18T00:17:48.132Z,10.35
2023-02-18T00:20:17.121Z,7.00
2023-02-18T00:22:45.704Z,8.07
2023-02-18T00:25:14.394Z,7.65
2023-02-18T00:27:43.084Z,11.13
2023-02-18T00:30:12.141Z,8.93
2023-02-18T00:32:41.150Z,8.18
2023-02-18T00:35:10.284Z,9.18
2023-02-18T00:37:38.867Z,8.23
2023-02-18T00:40:08.359Z,8.60
2023-02-18T00:42:37.799Z,8.32
2023-02-18T00:45:06.886Z,11.50
2023-02-18T00:47:35.362Z,8.68
2023-02-18T00:50:04.039Z,9.98
2023-02-18T00:52:32.581Z,9.63
2023-02-18T00:55:02.157Z,7.63
2023-02-18T00:57:30.770Z,6.28
2023-02-18T00:59:59.439Z,8.20
2023-02-18T01:02:28.283Z,9.63
2023-02-18T01:04:56.984Z,7.22
2023-02-18T01:07:25.746Z,8.43
2023-02-18T01:09:54.287Z,7.85
2023-02-18T01:12:22.935Z,7.82
2023-02-18T01:14:51.707Z,13.55
2023-02-18T01:17:20.650Z,9.40
2023-02-18T01:19:49.350Z,10.15
2023-02-18T01:22:20.504Z,10.68
2023-02-18T01:24:49.061Z,8.43
2023-02-18T01:27:17.941Z,9.93
2023-02-18T01:29:46.543Z,10.48
2023-02-18T01:32:15.759Z,8.10
2023-02-18T01:34:44.707Z,9.90
2023-02-18T01:37:14.901Z,10.45
2023-02-18T01:39:43.782Z,8.05
2023-02-18T01:42:30.089Z,8.93
2023-02-18T01:45:40.354Z,9.73
2023-02-18T01:48:23.323Z,10.02
2023-02-18T01:51:12.558Z,9.45
2023-02-18T01:54:03.236Z,8.77
2023-02-18T01:56:57.429Z,9.40
2023-02-18T01:59:33.721Z,8.55
2023-02-18T02:02:02.710Z,8.98
2023-02-18T02:04:31.629Z,9.77
2023-02-18T02:07:00.483Z,8.60
2023-02-18T02:09:31.894Z,8.48
2023-02-18T02:12:33.311Z,9.00
2023-02-18T02:15:27.132Z,9.85
2023-02-18T02:18:08.776Z,5.07
2023-02-18T02:21:07.097Z,8.13
2023-02-18T02:24:06.245Z,6.60
2023-02-18T02:27:11.261Z,5.57
2023-02-18T02:29:58.287Z,8.07
2023-02-18T02:32:57.713Z,7.65
2023-02-18T02:35:48.056Z,7.60
2023-02-18T02:38:38.160Z,7.97
2023-02-18T02:41:35.751Z,8.10
2023-02-18T02:44:07.773Z,8.20
2023-02-18T02:46:42.374Z,8.02
2023-02-18T02:49:25.881Z,9.02
2023-02-18T02:52:18.873Z,8.20
2023-02-18T02:54:47.755Z,6.57
2023-02-18T02:57:19.611Z,8.38
2023-02-18T03:00:19.620Z,8.02
2023-02-18T03:03:34.061Z,8.55
2023-02-18T03:06:43.110Z,7.80
2023-02-18T03:09:37.118Z,8.80
2023-02-18T03:12:35.439Z,6.40
2023-02-18T03:15:23.028Z,8.50
2023-02-18T03:18:16.624Z,7.97
2023-02-18T03:20:51.819Z,8.02
2023-02-18T03:23:28.204Z,7.80
2023-02-18T03:26:00.446Z,7.50
2023-02-18T03:28:33.049Z,6.97
2023-02-18T03:31:14.737Z,7.57
2023-02-18T03:33:55.462Z,8.52
2023-02-18T03:36:25.588Z,9.27
2023-02-18T03:39:22.395Z,7.85
2023-02-18T03:41:52.354Z,6.93
2023-02-18T03:44:21.687Z,8.10
2023-02-18T03:46:50.591Z,8.13
2023-02-18T03:49:20.776Z,8.50
2023-02-18T03:51:50.915Z,6.20
2023-02-18T03:54:20.973Z,6.72
2023-02-18T03:56:52.672Z,5.30
2023-02-18T03:59:21.441Z,8.52
2023-02-18T04:01:50.318Z,8.35
2023-02-18T04:04:19.341Z,9.35
2023-02-18T04:06:48.102Z,8.32
2023-02-18T04:09:17.360Z,8.20
2023-02-18T04:11:46.245Z,6.85
2023-02-18T04:14:16.085Z,9.73
2023-02-18T04:16:44.866Z,9.13
2023-02-18T04:19:13.629Z,7.53
2023-02-18T04:21:42.827Z,7.32
2023-02-18T04:24:11.619Z,8.55
2023-02-18T04:26:40.306Z,8.63
2023-02-18T04:29:09.573Z,8.02
2023-02-18T04:31:38.407Z,8.85
2023-02-18T04:34:07.195Z,7.45
2023-02-18T04:36:36.418Z,7.50
2023-02-18T04:39:11.322Z,8.73
2023-02-18T04:41:40.172Z,7.88
2023-02-18T04:44:08.919Z,7.97
2023-02-18T04:46:37.655Z,9.13
2023-02-18T04:49:06.613Z,10.52
2023-02-18T04:51:35.351Z,12.43
2023-02-18T04:54:04.146Z,12.68
2023-02-18T04:56:32.791Z,9.90
2023-02-18T04:59:01.477Z,6.40
2023-02-18T05:01:30.091Z,7.57
2023-02-18T05:03:58.830Z,9.15
2023-02-18T05:06:27.735Z,6.88
2023-02-18T05:08:57.398Z,7.60
2023-02-18T05:11:26.142Z,8.57
2023-02-18T05:13:55.078Z,5.50
2023-02-18T05:16:23.858Z,7.13
2023-02-18T05:18:52.762Z,8.45
2023-02-18T05:21:21.602Z,8.75
2023-02-18T05:23:50.224Z,9.18
2023-02-18T05:26:19.180Z,9.65
2023-02-18T05:28:48.066Z,7.95
2023-02-18T05:31:17.167Z,6.38
2023-02-18T05:33:45.981Z,6.70
2023-02-18T05:36:14.664Z,8.82
2023-02-18T05:38:43.460Z,9.27
2023-02-18T05:41:12.199Z,6.82
2023-02-18T05:43:59.199Z,7.13
2023-02-18T05:46:28.070Z,6.50
2023-02-18T05:48:56.999Z,8.00
2023-02-18T05:51:27.743Z,9.10
2023-02-18T05:53:56.604Z,6.95
2023-02-18T05:56:25.249Z,7.78
2023-02-18T05:58:56.579Z,7.50
2023-02-18T06:01:25.436Z,6.80
2023-02-18T06:03:54.479Z,8.48
2023-02-18T06:06:23.279Z,8.88
2023-02-18T06:08:52.023Z,7.35
2023-02-18T06:11:20.841Z,8.38
2023-02-18T06:13:50.723Z,6.82
2023-02-18T06:16:19.427Z,7.18
2023-02-18T06:18:48.368Z,8.23
2023-02-18T06:21:17.415Z,7.97
2023-02-18T06:23:46.294Z,9.13
2023-02-18T06:26:15.199Z,7.20
2023-02-18T06:28:43.899Z,7.20
2023-02-18T06:31:13.293Z,8.48
2023-02-18T06:33:42.618Z,7.57
2023-02-18T06:36:13.179Z,8.68
2023-02-18T06:38:44.878Z,8.00
2023-02-18T06:41:14.958Z,11.68
2023-02-18T06:43:43.800Z,10.15
2023-02-18T06:46:12.434Z,11.18
2023-02-18T06:48:41.396Z,11.00
2023-02-18T06:51:10.421Z,9.73
2023-02-18T06:53:39.276Z,7.82
2023-02-18T06:56:08.436Z,6.00
2023-02-18T06:58:37.516Z,10.43
2023-02-18T07:01:06.572Z,8.95
2023-02-18T07:03:35.534Z,12.48
2023-02-18T07:06:04.792Z,12.02
2023-02-18T07:08:36.813Z,10.02
2023-02-18T07:11:05.833Z,11.68
2023-02-18T07:13:34.493Z,10.40
2023-02-18T07:16:03.308Z,7.65
2023-02-18T07:18:32.124Z,10.75
2023-02-18T07:21:00.867Z,11.15
2023-02-18T07:23:29.647Z,11.00
2023-02-18T07:26:10.002Z,8.40
2023-02-18T07:28:39.915Z,9.52
2023-02-18T07:31:09.295Z,11.07
2023-02-18T07:33:37.906Z,12.85
2023-02-18T07:36:07.596Z,14.70
2023-02-18T07:38:36.605Z,9.40
2023-02-18T07:41:05.689Z,11.07
2023-02-18T07:43:34.606Z,9.98
2023-02-18T07:46:07.937Z,10.93
2023-02-18T07:48:37.064Z,7.50
2023-02-18T07:51:13.654Z,9.57
2023-02-18T07:53:42.856Z,8.85
2023-02-18T07:56:11.877Z,11.25
2023-02-18T07:58:41.281Z,9.05
2023-02-18T08:01:12.922Z,8.32
2023-02-18T08:03:42.332Z,9.30
2023-02-18T08:06:22.643Z,10.30
2023-02-18T08:08:51.579Z,13.70
2023-02-18T08:11:20.286Z,11.80
2023-02-18T08:13:50.261Z,12.32
2023-02-18T08:16:21.325Z,10.45
2023-02-18T08:18:51.790Z,8.48
2023-02-18T08:21:23.111Z,10.32
2023-02-18T08:23:52.168Z,11.52
2023-02-18T08:26:22.232Z,7.82
2023-02-18T08:28:51.270Z,9.18
2023-02-18T08:31:23.478Z,15.27
2023-02-18T08:33:54.012Z,9.48
2023-02-18T08:36:23.979Z,9.10
2023-02-18T08:38:52.823Z,7.85
2023-02-18T08:41:24.631Z,9.45
2023-02-18T08:43:53.930Z,11.57
2023-02-18T08:46:27.227Z,13.10
2023-02-18T08:49:02.590Z,7.65
2023-02-18T08:51:32.382Z,9.80
2023-02-18T08:54:01.117Z,10.30
2023-02-18T08:56:29.805Z,10.80
2023-02-18T08:58:59.037Z,7.70
2023-02-18T09:01:27.877Z,7.95
2023-02-18T09:03:56.757Z,11.85
2023-02-18T09:06:25.389Z,8.40
2023-02-18T09:08:54.252Z,11.93
2023-02-18T09:11:23.009Z,10.95
2023-02-18T09:13:51.691Z,10.82
2023-02-18T09:16:20.378Z,11.18
2023-02-18T09:18:49.792Z,10.82
2023-02-18T09:21:21.400Z,11.82
2023-02-18T09:23:50.645Z,11.77
2023-02-18T09:26:25.748Z,11.15
2023-02-18T09:28:56.967Z,11.15
2023-02-18T09:31:27.567Z,10.50
2023-02-18T09:33:59.313Z,11.43
2023-02-18T09:36:28.769Z,10.93
2023-02-18T09:38:57.632Z,11.20
2023-02-18T09:41:38.774Z,10.80
2023-02-18T09:44:35.956Z,11.85
2023-02-18T09:47:15.792Z,11.70
2023-02-18T09:49:55.323Z,12.15
2023-02-18T09:52:34.029Z,10.63
2023-02-18T09:55:20.179Z,11.18
2023-02-18T09:57:52.432Z,10.70
2023-02-18T10:00:39.525Z,10.82
2023-02-18T10:03:15.799Z,11.05
2023-02-18T10:06:01.882Z,11.95
2023-02-18T10:08:41.442Z,10.57
2023-02-18T10:11:17.981Z,11.35
2023-02-18T10:13:49.283Z,11.63
2023-02-18T10:16:25.837Z,10.77
2023-02-18T10:19:20.538Z,11.02
2023-02-18T10:21:50.717Z,11.45
2023-02-18T10:24:36.203Z,11.98
2023-02-18T10:27:08.160Z,11.45
2023-02-18T10:29:37.942Z,8.32
2023-02-18T10:32:26.100Z,11.07
2023-02-18T10:35:31.527Z,11.88
2023-02-18T10:38:27.458Z,12.20
2023-02-18T10:41:05.367Z,11.98
2023-02-18T10:44:06.800Z,12.13
2023-02-18T10:46:48.019Z,11.88
2023-02-18T10:49:42.827Z,12.40
2023-02-18T10:52:17.905Z,11.43
2023-02-18T10:55:00.110Z,11.52
2023-02-18T10:57:29.492Z,11.52
2023-02-18T11:00:22.103Z,11.13
2023-02-18T11:03:19.442Z,12.88
2023-02-18T11:05:51.938Z,10.65
2023-02-18T11:08:29.511Z,12.48
2023-02-18T11:10:59.479Z,11.82
2023-02-18T11:13:32.761Z,12.63
2023-02-18T11:16:10.164Z,11.55
2023-02-18T11:18:42.434Z,11.75
2023-02-18T11:21:31.012Z,11.52
2023-02-18T11:24:11.336Z,11.77
2023-02-18T11:26:41.863Z,11.90
2023-02-18T11:29:27.507Z,12.18
2023-02-18T11:31:59.209Z,12.23
2023-02-18T11:34:32.083Z,12.63
2023-02-18T11:37:20.055Z,13.30
2023-02-18T11:39:56.038Z,11.30
2023-02-18T11:42:28.075Z,12.52
2023-02-18T11:45:00.110Z,11.82
2023-02-18T11:47:38.736Z,12.27
2023-02-18T11:50:11.601Z,11.40
2023-02-18T11:52:48.818Z,12.15
2023-02-18T11:55:24.372Z,11.38
2023-02-18T11:58:04.811Z,12.77
2023-02-18T12:00:43.839Z,11.45
2023-02-18T12:03:35.347Z,12.52
2023-02-18T12:06:12.660Z,11.20
2023-02-18T12:09:07.662Z,11.25
2023-02-18T12:11:47.637Z,11.98
2023-02-18T12:14:24.398Z,11.40
2023-02-18T12:17:30.555Z,11.25
2023-02-18T12:20:20.432Z,12.15
2023-02-18T12:23:03.987Z,11.95
2023-02-18T12:25:47.480Z,12.30
2023-02-18T12:28:47.376Z,13.02
2023-02-18T12:31:59.270Z,12.35
2023-02-18T12:34:46.696Z,12.77
2023-02-18T12:37:33.582Z,12.23
2023-02-18T12:40:43.661Z,15.05
2023-02-18T12:43:51.320Z,13.10
2023-02-18T12:46:38.598Z,12.48
2023-02-18T12:49:20.371Z,13.15
2023-02-18T12:52:10.918Z,12.30
2023-02-18T12:54:45.257Z,14.93
2023-02-18T12:57:28.610Z,13.30
2023-02-18T13:00:22.292Z,14.73
2023-02-18T13:03:24.544Z,14.65
2023-02-18T13:06:09.436Z,14.43
2023-02-18T13:08:57.093Z,14.82
2023-02-18T13:11:38.377Z,15.35
2023-02-18T13:14:19.765Z,14.50
2023-02-18T13:16:54.397Z,15.85
2023-02-18T13:19:28.895Z,16.42
2023-02-18T13:22:05.502Z,15.98
2023-02-18T13:24:39.974Z,16.25
2023-02-18T13:27:15.027Z,16.95
2023-02-18T13:30:18.141Z,16.42
2023-02-18T13:32:55.466Z,15.80
2023-02-18T13:35:30.529Z,14.95
2023-02-18T13:38:36.314Z,15.80
2023-02-18T13:41:07.043Z,13.20
2023-02-18T13:43:37.623Z,12.73
2023-02-18T13:46:09.668Z,13.63
2023-02-18T13:48:48.071Z,12.68
2023-02-18T13:51:31.834Z,14.13
2023-02-18T13:54:27.622Z,11.32
2023-02-18T13:57:05.990Z,13.80
2023-02-18T13:59:51.929Z,14.90
2023-02-18T14:02:21.339Z,24.65
2023-02-18T14:04:54.717Z,15.32
2023-02-18T14:07:37.461Z,16.23
2023-02-18T14:10:08.617Z,17.23
2023-02-18T14:12:51.999Z,16.63
2023-02-18T14:15:21.981Z,15.80
2023-02-18T14:17:59.985Z,16.00
2023-02-18T14:20:32.035Z,16.25
2023-02-18T14:23:01.564Z,17.20
2023-02-18T14:25:46.320Z,16.90
2023-02-18T14:28:48.863Z,18.63
2023-02-18T14:31:29.901Z,17.38
2023-02-18T14:34:15.367Z,18.23
2023-02-18T14:36:46.692Z,15.55
2023-02-18T14:39:30.228Z,17.83
2023-02-18T14:42:10.731Z,19.85
2023-02-18T14:45:02.369Z,18.05
2023-02-18T14:47:39.994Z,19.08
2023-02-18T14:50:18.800Z,17.75
2023-02-18T14:52:54.843Z,16.73
2023-02-18T14:55:27.089Z,17.80
2023-02-18T14:58:15.053Z,19.00
2023-02-18T15:00:45.431Z,23.27
2023-02-18T15:03:22.125Z,18.52
2023-02-18T15:05:52.623Z,20.10
2023-02-18T15:08:23.013Z,18.05
2023-02-18T15:11:02.307Z,16.60
2023-02-18T15:13:34.954Z,20.77
2023-02-18T15:16:08.918Z,19.38
2023-02-18T15:21:36.276Z,48.90
2023-02-18T15:24:21.249Z,22.75
2023-02-18T15:26:52.798Z,23.85
2023-02-18T15:29:24.745Z,17.45
2023-02-18T15:31:56.504Z,18.63
2023-02-18T15:34:31.862Z,16.85
2023-02-18T15:37:01.827Z,17.27
2023-02-18T15:39:33.220Z,18.25
2023-02-18T15:42:14.280Z,18.23
2023-02-18T15:44:49.605Z,20.05
2023-02-18T15:47:19.325Z,20.80
2023-02-18T15:49:55.000Z,18.65
2023-02-18T15:52:30.301Z,17.40
2023-02-18T15:55:09.075Z,20.50
2023-02-18T15:57:38.332Z,18.45
2023-02-18T16:00:21.417Z,19.75
2023-02-18T16:02:57.842Z,21.70
2023-02-18T16:05:29.335Z,16.08
2023-02-18T16:08:07.864Z,17.05
2023-02-18T16:10:53.942Z,18.88
2023-02-18T16:13:25.152Z,18.27
2023-02-18T16:15:56.094Z,16.77
2023-02-18T16:18:32.350Z,16.10
2023-02-18T16:21:08.231Z,21.83
2023-02-18T16:23:55.158Z,18.58
2023-02-18T16:26:38.651Z,20.20
2023-02-18T16:29:22.752Z,17.42
2023-02-18T16:31:51.545Z,18.58
2023-02-18T16:34:20.952Z,17.33
2023-02-18T16:37:09.211Z,19.45
2023-02-18T16:39:40.969Z,19.02
2023-02-18T16:42:13.689Z,18.25
2023-02-18T16:44:42.753Z,18.77
2023-02-18T16:47:17.700Z,21.40
2023-02-18T16:49:51.380Z,18.00
2023-02-18T16:52:21.424Z,17.70
2023-02-18T16:54:50.988Z,19.25
2023-02-18T16:57:20.126Z,20.35
2023-02-18T16:59:52.014Z,19.00
2023-02-18T17:02:25.994Z,19.70
2023-02-18T17:04:58.316Z,19.15
2023-02-18T17:07:27.155Z,19.20
2023-02-18T17:09:56.258Z,19.15
2023-02-18T17:12:25.851Z,19.13
2023-02-18T17:14:54.913Z,20.25
2023-02-18T17:17:24.411Z,17.90
2023-02-18T17:19:53.372Z,17.90
2023-02-18T17:22:22.611Z,20.85
2023-02-18T17:24:51.410Z,19.00
2023-02-18T17:27:20.075Z,21.52
2023-02-18T17:29:49.832Z,21.17
2023-02-18T17:32:19.343Z,19.92
2023-02-18T17:34:48.579Z,19.42
2023-02-18T17:37:17.231Z,20.60
2023-02-18T17:39:45.948Z,21.80
2023-02-18T17:42:15.330Z,21.00
2023-02-18T17:44:44.587Z,19.92
2023-02-18T17:47:13.870Z,23.13
2023-02-18T17:49:42.728Z,21.83
2023-02-18T17:52:31.590Z,21.67
2023-02-18T17:55:00.281Z,21.55
2023-02-18T17:57:29.499Z,21.15
2023-02-18T17:59:58.485Z,21.35
2023-02-18T18:02:29.068Z,20.85
2023-02-18T18:04:58.363Z,20.02
2023-02-18T18:07:27.354Z,23.48
2023-02-18T18:09:56.173Z,21.75
2023-02-18T18:12:25.417Z,20.48
2023-02-18T18:14:54.348Z,21.33
2023-02-18T18:17:26.219Z,21.45
2023-02-18T18:19:54.800Z,20.35
2023-02-18T18:22:23.573Z,21.80
2023-02-18T18:24:52.419Z,20.38
2023-02-18T18:27:21.038Z,22.15
2023-02-18T18:29:50.320Z,20.48
2023-02-18T18:32:18.893Z,20.77
2023-02-18T18:34:49.229Z,21.15
2023-02-18T18:37:17.898Z,22.10
2023-02-18T18:39:46.778Z,20.42
2023-02-18T18:42:15.418Z,21.58
2023-02-18T18:44:47.003Z,19.75
2023-02-18T18:47:15.744Z,20.30
2023-02-18T18:49:44.237Z,21.20
2023-02-18T18:52:17.253Z,20.15
2023-02-18T18:54:45.872Z,19.83
2023-02-18T18:57:15.261Z,19.80
2023-02-18T18:59:44.030Z,21.42
2023-02-18T19:02:17.909Z,19.83
2023-02-18T19:04:48.839Z,21.23
2023-02-18T19:07:17.678Z,21.20
2023-02-18T19:09:46.546Z,23.50
2023-02-18T19:12:15.258Z,21.98
2023-02-18T19:14:44.319Z,19.33
2023-02-18T19:17:13.181Z,20.75
2023-02-18T19:19:42.183Z,20.60
2023-02-18T19:22:10.695Z,20.25
2023-02-18T19:24:39.177Z,20.40
2023-02-18T19:27:07.858Z,20.52
2023-02-18T19:29:36.834Z,19.55
2023-02-18T19:32:05.787Z,18.95
2023-02-18T19:34:34.362Z,20.90
2023-02-18T19:37:03.518Z,20.05
2023-02-18T19:39:32.295Z,18.80
2023-02-18T19:42:00.976Z,21.33
2023-02-18T19:44:34.769Z,20.52
2023-02-18T19:47:03.652Z,18.77
2023-02-18T19:49:32.478Z,18.15
2023-02-18T19:52:04.958Z,19.23
2023-02-18T19:54:33.800Z,19.42
2023-02-18T19:57:02.364Z,19.83
2023-02-18T19:59:31.220Z,20.05
2023-02-18T20:01:59.961Z,18.45
2023-02-18T20:04:28.572Z,18.00
2023-02-18T20:06:57.081Z,19.90
2023-02-18T20:09:25.860Z,17.88
2023-02-18T20:11:54.861Z,19.60
2023-02-18T20:14:27.604Z,18.15
2023-02-18T20:16:58.701Z,20.08
2023-02-18T20:19:31.707Z,20.33
2023-02-18T20:22:01.853Z,19.50
2023-02-18T20:24:32.844Z,18.65
2023-02-18T20:27:03.015Z,17.48
2023-02-18T20:29:34.208Z,18.73
2023-02-18T20:32:03.763Z,19.45
2023-02-18T20:34:33.746Z,20.17
2023-02-18T20:37:02.344Z,19.63
2023-02-18T20:39:31.074Z,18.33
2023-02-18T20:42:08.050Z,17.10
2023-02-18T20:44:43.338Z,16.30
2023-02-18T20:47:14.319Z,13.85
2023-02-18T20:49:43.441Z,15.15
2023-02-18T20:52:12.384Z,16.70
2023-02-18T20:54:41.101Z,17.10
2023-02-18T20:57:10.199Z,17.27
2023-02-18T20:59:38.979Z,16.52
2023-02-18T21:02:07.835Z,16.50
2023-02-18T21:04:36.580Z,14.43
2023-02-18T21:07:05.306Z,12.73
2023-02-18T21:09:33.981Z,14.02
2023-02-18T21:12:03.206Z,13.68
2023-02-18T21:14:32.093Z,13.93
2023-02-18T21:17:00.831Z,14.30
2023-02-18T21:19:32.891Z,12.43
2023-02-18T21:22:02.199Z,15.40
2023-02-18T21:24:32.702Z,14.18
2023-02-18T21:27:01.682Z,12.30
2023-02-18T21:29:30.336Z,12.80
2023-02-18T21:31:59.051Z,12.38
2023-02-18T21:34:27.995Z,11.95
2023-02-18T21:36:59.120Z,11.75
2023-02-18T21:39:27.855Z,12.20
2023-02-18T21:41:57.913Z,12.77
2023-02-18T21:44:36.703Z,11.93
2023-02-18T21:47:10.453Z,12.50
2023-02-18T21:49:39.176Z,14.30
2023-02-18T21:52:11.832Z,11.35
2023-02-18T21:54:48.755Z,13.10
2023-02-18T21:57:20.478Z,10.90
2023-02-18T21:59:49.666Z,11.80
2023-02-18T22:02:36.262Z,9.70
2023-02-18T22:05:09.015Z,11.20
2023-02-18T22:07:37.657Z,9.70
2023-02-18T22:10:06.729Z,9.07
2023-02-18T22:12:35.388Z,10.18
2023-02-18T22:15:05.188Z,11.07
2023-02-18T22:17:34.070Z,10.52
2023-02-18T22:20:02.972Z,12.30
2023-02-18T22:22:32.188Z,11.95
2023-02-18T22:25:01.089Z,10.88
2023-02-18T22:27:30.466Z,11.18
2023-02-18T22:29:59.199Z,9.82
2023-02-18T22:32:28.254Z,10.18
2023-02-18T22:34:56.883Z,11.27
2023-02-18T22:37:25.667Z,10.82
2023-02-18T22:39:54.780Z,10.38
2023-02-18T22:42:23.642Z,9.85
2023-02-18T22:44:52.094Z,10.43
2023-02-18T22:47:20.855Z,9.35
2023-02-18T22:49:49.762Z,9.88
2023-02-18T22:52:18.739Z,9.57
2023-02-18T22:54:47.932Z,10.32
2023-02-18T22:57:16.567Z,9.73
2023-02-18T22:59:45.281Z,9.45
2023-02-18T23:02:14.357Z,10.65
2023-02-18T23:04:43.961Z,10.55
2023-02-18T23:07:13.200Z,8.77
2023-02-18T23:09:42.583Z,7.93
2023-02-18T23:12:11.374Z,11.27
2023-02-18T23:14:40.180Z,10.50
2023-02-18T23:17:14.777Z,8.43
2023-02-18T23:19:51.464Z,9.05
2023-02-18T23:22:30.981Z,8.07
2023-02-18T23:25:00.601Z,9.02
2023-02-18T23:27:29.487Z,9.75
2023-02-18T23:29:58.391Z,8.93
2023-02-18T23:32:28.580Z,10.13
2023-02-18T23:34:57.223Z,9.50
2023-02-18T23:37:45.781Z,8.35
2023-02-18T23:40:15.550Z,8.02
2023-02-18T23:42:44.323Z,8.55
2023-02-18T23:45:12.985Z,8.38
2023-02-18T23:47:41.583Z,9.55
2023-02-18T23:50:10.286Z,8.52
2023-02-18T23:52:39.008Z,8.40
2023-02-18T23:55:07.625Z,10.45
2023-02-18T23:57:36.339Z,7.65
